Time;durP1;ratioP1;P1;durP2;ratioP2;P2;SDS_P1;SDS_P2;PMS_P1;PMS_P2;Temp;Humidity;BMP_temperature;BMP_pressure;BME280_temperature;BME280_humidity;BME280_pressure;Samples;Min_cycle;Max_cycle;Signal;HPM_P1;HPM_P2
2022/10/02 00:01:02;;;;;;;28.52;3.42;;;;;;;14.94;100.00;100510.22;8314173;28;20115;-52
2022/10/02 00:05:28;;;;;;;20.65;2.97;;;;;;;14.95;100.00;100529.13;8319152;28;20065;-54
2022/10/02 00:09:40;;;;;;;18.65;4.07;;;;;;;14.93;100.00;100524.88;8316983;28;20058;-51
2022/10/02 00:13:54;;;;;;;23.00;4.00;;;;;;;14.92;100.00;100524.03;8318804;28;20037;-53
2022/10/02 00:18:01;;;;;;;27.23;3.63;;;;;;;14.93;100.00;100524.88;8318007;28;20080;-55
2022/10/02 00:26:25;;;;;;;19.55;3.75;;;;;;;14.94;100.00;100523.84;8414679;27;20969;-51
2022/10/02 00:30:32;;;;;;;23.73;3.72;;;;;;;15.02;100.00;100523.88;8385286;28;20033;-53
2022/10/02 00:34:56;;;;;;;24.98;3.40;;;;;;;15.06;100.00;100531.53;8384592;28;20037;-52
2022/10/02 00:39:19;;;;;;;24.55;3.38;;;;;;;15.10;100.00;100541.06;8378075;28;20033;-52
2022/10/02 00:43:59;;;;;;;23.75;4.13;;;;;;;15.10;100.00;100542.94;8350991;28;20095;-51
2022/10/02 00:48:32;;;;;;;24.95;3.72;;;;;;;15.10;100.00;100554.66;8351364;28;20065;-51
2022/10/02 00:52:57;;;;;;;26.48;4.05;;;;;;;15.04;100.00;100560.78;8351536;28;20418;-53
2022/10/02 00:57:24;;;;;;;27.45;3.70;;;;;;;15.00;100.00;100554.00;8351403;28;20128;-55
2022/10/02 01:05:45;;;;;;;17.88;3.38;;;;;;;15.18;100.00;100549.25;8323432;27;20381;-53
2022/10/02 01:09:45;;;;;;;28.73;4.30;;;;;;;15.30;100.00;100557.91;8317241;28;20044;-52
2022/10/02 01:13:47;;;;;;;27.05;3.97;;;;;;;15.37;100.00;100556.28;8319648;28;20061;-50
2022/10/02 01:17:50;;;;;;;21.75;4.72;;;;;;;15.37;100.00;100557.09;8315081;28;20030;-53
2022/10/02 01:21:59;;;;;;;28.13;4.93;;;;;;;15.32;100.00;100559.47;8320950;28;20406;-53
2022/10/02 01:26:00;;;;;;;29.60;4.13;;;;;;;15.35;100.00;100564.59;8319780;28;20053;-54
2022/10/02 01:30:06;;;;;;;32.03;4.45;;;;;;;15.37;100.00;100572.63;8318463;28;20063;-53
2022/10/02 01:34:07;;;;;;;29.30;4.28;;;;;;;15.45;100.00;100565.28;8319375;28;20038;-50
2022/10/02 01:38:11;;;;;;;31.40;4.20;;;;;;;15.49;100.00;100550.28;8319032;28;20204;-53
2022/10/02 01:42:12;;;;;;;26.00;4.60;;;;;;;15.57;100.00;100555.75;8317486;28;20033;-52
2022/10/02 01:46:36;;;;;;;35.17;4.03;;;;;;;15.66;100.00;100565.63;8319209;28;20415;-54
2022/10/02 01:51:03;;;;;;;24.38;3.70;;;;;;;15.66;100.00;100562.91;8316396;28;20041;-53
2022/10/02 02:00:10;;;;;;;29.35;4.30;;;;;;;15.66;100.00;100556.59;8281708;27;20382;-50
2022/10/02 02:04:22;;;;;;;22.98;4.90;;;;;;;15.62;100.00;100566.97;8285439;28;20051;-51
2022/10/02 02:08:33;;;;;;;22.63;3.83;;;;;;;15.65;100.00;100555.72;8316235;28;20042;-52
2022/10/02 02:12:44;;;;;;;22.58;4.00;;;;;;;15.68;100.00;100560.00;8319238;28;20068;-50
2022/10/02 02:16:49;;;;;;;26.00;4.40;;;;;;;15.67;100.00;100561.88;8319621;28;20127;-53
2022/10/02 02:20:52;;;;;;;23.30;3.85;;;;;;;15.70;100.00;100539.72;8317699;28;20429;-53
2022/10/02 02:25:00;;;;;;;31.13;4.63;;;;;;;15.67;100.00;100553.69;8319303;28;20491;-53
2022/10/02 02:29:06;;;;;;;31.70;4.47;;;;;;;15.64;100.00;100553.16;8314542;28;20506;-55
2022/10/02 02:33:13;;;;;;;27.17;3.65;;;;;;;15.56;100.00;100548.56;8317505;28;20073;-55
2022/10/02 02:37:20;;;;;;;30.95;5.00;;;;;;;15.55;100.00;100549.63;8299208;28;20455;-52
2022/10/02 02:41:30;;;;;;;22.48;4.63;;;;;;;15.54;100.00;100541.59;8314735;28;20026;-53
2022/10/02 02:45:37;;;;;;;27.50;4.38;;;;;;;15.56;100.00;100551.31;8319297;28;20026;-54
2022/10/02 02:49:49;;;;;;;22.88;3.92;;;;;;;15.59;100.00;100556.41;8316742;28;20072;-51
2022/10/02 02:53:57;;;;;;;25.23;3.60;;;;;;;15.64;100.00;100548.59;8305896;28;20037;-54
2022/10/02 02:58:18;;;;;;;23.55;4.00;;;;;;;15.68;100.00;100560.84;8318227;28;20129;-54
2022/10/02 03:02:18;;;;;;;27.80;4.07;;;;;;;15.75;100.00;100552.81;8317225;28;20030;-56
2022/10/02 03:06:27;;;;;;;37.80;4.35;;;;;;;15.79;100.00;100550.63;8317978;28;20144;-55
2022/10/02 03:10:51;;;;;;;31.25;4.90;;;;;;;15.73;100.00;100551.31;8299356;28;20041;-55
2022/10/02 03:15:18;;;;;;;35.35;5.47;;;;;;;15.64;100.00;100570.38;8294514;28;20045;-54
2022/10/02 03:19:44;;;;;;;25.13;3.42;;;;;;;15.58;100.00;100560.16;8258332;28;20038;-56
2022/10/02 03:24:14;;;;;;;40.00;4.63;;;;;;;15.59;100.00;100553.69;8262066;28;20061;-55
2022/10/02 03:28:20;;;;;;;26.73;3.42;;;;;;;15.57;100.00;100558.47;8258537;28;20500;-55
2022/10/02 03:32:22;;;;;;;32.25;4.88;;;;;;;15.58;100.00;100560.16;8256760;28;20062;-55
2022/10/02 03:36:24;;;;;;;22.65;3.85;;;;;;;15.58;100.00;100571.06;8262651;28;20472;-56
2022/10/02 03:40:26;;;;;;;25.77;3.88;;;;;;;15.53;100.00;100568.00;8262981;28;20038;-56
2022/10/02 03:44:26;;;;;;;28.52;4.90;;;;;;;15.48;100.00;100564.09;8262835;28;20026;-53
2022/10/02 03:48:27;;;;;;;22.90;3.50;;;;;;;15.44;100.00;100562.75;8261513;28;20084;-55
2022/10/02 03:52:30;;;;;;;21.30;4.00;;;;;;;15.39;100.00;100559.66;8261151;28;20125;-56
2022/10/02 03:56:40;;;;;;;28.55;4.07;;;;;;;15.35;100.00;100569.16;8256099;28;20046;-57
2022/10/02 04:00:50;;;;;;;30.58;3.78;;;;;;;15.33;100.00;100558.44;8254086;28;20038;-57
2022/10/02 04:04:58;;;;;;;24.80;3.83;;;;;;;15.30;100.00;100563.38;8261205;28;20062;-57
2022/10/02 04:09:05;;;;;;;20.00;3.85;;;;;;;15.27;100.00;100559.13;8260691;28;20117;-56
2022/10/02 04:13:15;;;;;;;20.75;4.13;;;;;;;15.30;100.00;100561.50;8261589;28;20039;-56
2022/10/02 04:17:32;;;;;;;28.38;4.63;;;;;;;15.30;100.00;100566.97;8262223;28;20049;-56
2022/10/02 04:25:54;;;;;;;24.58;3.75;;;;;;;15.32;100.00;100566.78;8285195;27;20404;-54
2022/10/02 04:29:59;;;;;;;17.75;3.35;;;;;;;15.29;100.00;100569.84;8286539;28;20046;-55
2022/10/02 04:34:02;;;;;;;21.73;3.28;;;;;;;15.30;100.00;100566.09;8286905;28;20038;-53
2022/10/02 04:38:28;;;;;;;14.23;2.75;;;;;;;15.37;100.00;100578.91;8285918;28;20133;-55
2022/10/02 04:43:00;;;;;;;15.82;2.58;;;;;;;15.47;100.00;100576.84;8283082;28;20062;-55
2022/10/02 04:47:17;;;;;;;25.02;3.13;;;;;;;15.49;100.00;100577.53;8286918;28;20108;-54
2022/10/02 04:56:12;;;;;;;25.10;3.65;;;;;;;15.42;100.00;100586.56;8293039;28;20407;-55
2022/10/02 05:00:18;;;;;;;15.38;3.22;;;;;;;15.32;100.00;100570.38;8280367;28;20408;-56
2022/10/02 05:04:55;;;;;;;15.45;2.72;;;;;;;15.30;100.00;100566.09;8285744;28;20133;-55
2022/10/02 05:09:23;;;;;;;16.60;3.00;;;;;;;15.26;100.00;100565.59;8285709;28;20496;-56
2022/10/02 05:13:52;;;;;;;20.25;3.42;;;;;;;15.24;100.00;100575.81;8283136;28;20069;-53
2022/10/02 05:23:15;;;;;;;15.35;2.85;;;;;;;15.24;100.00;100577.66;8341368;27;20383;-55
2022/10/02 05:27:40;;;;;;;11.50;2.72;;;;;;;15.25;100.00;100582.94;8321239;28;20061;-54
2022/10/02 05:32:07;;;;;;;14.80;3.38;;;;;;;15.26;100.00;100592.84;8343484;28;20471;-55
2022/10/02 05:36:36;;;;;;;17.13;3.33;;;;;;;15.26;100.00;100595.56;8318417;28;20518;-55
2022/10/02 05:40:48;;;;;;;14.05;3.33;;;;;;;15.23;100.00;100603.22;8317852;28;20419;-55
2022/10/02 05:44:57;;;;;;;13.63;2.97;;;;;;;15.23;100.00;100606.78;8319129;28;20048;-54
2022/10/02 05:49:07;;;;;;;7.25;2.78;;;;;;;15.22;100.00;100599.63;8317193;28;20282;-54
2022/10/02 05:53:22;;;;;;;10.10;2.70;;;;;;;15.20;100.00;100587.22;8318812;28;22258;-52
2022/10/02 05:57:33;;;;;;;12.73;2.97;;;;;;;15.19;100.00;100602.69;8319281;28;20065;-49
2022/10/02 06:01:40;;;;;;;10.60;2.90;;;;;;;15.16;100.00;100603.03;8312125;28;20044;-48
2022/10/02 06:10:05;;;;;;;11.77;3.08;;;;;;;15.17;100.00;100607.47;8297116;28;20420;-48
2022/10/02 06:14:16;;;;;;;12.25;3.13;;;;;;;15.19;100.00;100616.31;8299311;28;20499;-49
2022/10/02 06:18:22;;;;;;;9.55;2.50;;;;;;;15.20;100.00;100615.31;8278239;28;20042;-52
2022/10/02 06:22:28;;;;;;;10.10;2.78;;;;;;;15.20;100.00;100614.44;8286511;28;20054;-49
2022/10/02 06:26:41;;;;;;;12.82;2.30;;;;;;;15.20;100.00;100615.31;8285416;28;20105;-49
2022/10/02 06:30:46;;;;;;;9.20;2.70;;;;;;;15.20;100.00;100631.66;8298630;28;20046;-49
2022/10/02 06:34:48;;;;;;;14.20;2.67;;;;;;;15.16;100.00;100630.25;8285632;28;20411;-50
2022/10/02 06:39:30;;;;;;;8.95;2.00;;;;;;;15.14;100.00;100632.31;8291897;28;20034;-49
2022/10/02 06:43:57;;;;;;;9.75;2.53;;;;;;;15.15;100.00;100638.59;8281938;28;20046;-49
2022/10/02 06:48:04;;;;;;;5.35;1.38;;;;;;;15.19;100.00;100651.72;8283707;28;20042;-49
2022/10/02 06:56:47;;;;;;;4.78;1.08;;;;;;;15.10;100.00;100658.16;8344449;27;20406;-52
2022/10/02 07:00:55;;;;;;;5.57;1.17;;;;;;;15.13;100.00;100663.28;8344305;28;20045;-48
2022/10/02 07:05:21;;;;;;;6.93;1.23;;;;;;;15.17;100.00;100664.66;8338886;28;20040;-50
2022/10/02 07:09:47;;;;;;;9.77;2.65;;;;;;;15.25;100.00;100667.38;8340926;28;20049;-49
2022/10/02 07:18:44;;;;;;;5.32;1.50;;;;;;;15.28;100.00;100677.94;8279502;27;20401;-49
2022/10/02 07:23:25;;;;;;;9.73;1.90;;;;;;;15.29;100.00;100685.13;8256547;28;20038;-48
2022/10/02 07:27:50;;;;;;;7.25;2.55;;;;;;;15.28;100.00;100688.84;8277467;28;20065;-50
2022/10/02 07:32:19;;;;;;;9.18;3.10;;;;;;;15.31;100.00;100677.63;8265579;28;20121;-50
2022/10/02 07:36:38;;;;;;;7.25;2.25;;;;;;;15.32;100.00;100673.03;8283341;28;20045;-49
2022/10/02 07:41:08;;;;;;;5.82;1.58;;;;;;;15.32;100.00;100692.09;8279725;28;20107;-50
2022/10/02 07:45:38;;;;;;;6.35;1.42;;;;;;;15.28;100.00;100698.91;8259649;28;20038;-49
2022/10/02 07:49:54;;;;;;;5.85;1.08;;;;;;;15.19;100.00;100706.19;8258099;28;20057;-50
2022/10/02 07:54:14;;;;;;;10.60;1.70;;;;;;;15.10;100.00;100712.63;8279985;28;20177;-50
2022/10/02 07:58:27;;;;;;;5.45;1.70;;;;;;;15.02;100.00;100718.06;8267783;28;20042;-49
2022/10/02 08:02:42;;;;;;;6.88;2.20;;;;;;;15.01;100.00;100719.06;8267580;28;20066;-52
2022/10/02 08:06:46;;;;;;;7.53;1.38;;;;;;;15.00;100.00;100711.91;8278017;28;20042;-52
2022/10/02 08:10:51;;;;;;;4.25;0.93;;;;;;;15.01;100.00;100716.31;8259045;28;20039;-53
2022/10/02 08:14:54;;;;;;;5.32;1.10;;;;;;;15.05;100.00;100715.00;8258912;28;20500;-51
2022/10/02 08:19:01;;;;;;;4.28;1.63;;;;;;;15.06;100.00;100716.69;8274374;28;20046;-53
2022/10/02 08:23:19;;;;;;;7.50;1.30;;;;;;;15.10;100.00;100712.63;8262331;28;20077;-51
2022/10/02 08:27:25;;;;;;;7.35;1.15;;;;;;;15.15;100.00;100721.16;8250032;28;20377;-51
2022/10/02 08:31:26;;;;;;;7.88;1.67;;;;;;;15.22;100.00;100724.91;8249355;28;20427;-51
2022/10/02 08:35:39;;;;;;;5.28;1.70;;;;;;;15.31;100.00;100729.38;8246837;28;20097;-54
2022/10/02 08:40:19;;;;;;;6.13;0.80;;;;;;;15.47;100.00;100712.28;8252911;28;20450;-51
2022/10/02 08:44:38;;;;;;;5.60;1.50;;;;;;;15.65;100.00;100724.72;8269255;28;20038;-50
2022/10/02 08:49:05;;;;;;;7.60;1.08;;;;;;;15.86;100.00;100726.13;8241980;28;20093;-51
2022/10/02 08:53:45;;;;;;;4.97;1.20;;;;;;;16.06;100.00;100738.38;8241669;28;20034;-51
2022/10/02 08:58:26;;;;;;;7.28;1.10;;;;;;;16.22;100.00;100749.31;8235866;28;20110;-51
2022/10/02 09:02:49;;;;;;;8.02;1.73;;;;;;;16.28;100.00;100745.91;8237291;28;20085;-55
2022/10/02 09:07:29;;;;;;;5.47;1.02;;;;;;;16.41;100.00;100763.44;8229347;28;20549;-54
2022/10/02 09:12:10;;;;;;;7.90;1.80;;;;;;;16.88;100.00;100752.63;8249652;28;20069;-53
2022/10/02 09:16:27;;;;;;;4.65;1.13;;;;;;;17.07;100.00;100763.16;8242519;28;20381;-51
2022/10/02 09:20:56;;;;;;;5.75;1.17;;;;;;;17.05;98.97;100771.53;8245114;28;20125;-51
2022/10/02 09:25:37;;;;;;;3.58;1.00;;;;;;;16.88;97.09;100767.16;8233411;28;20455;-54
2022/10/02 09:34:09;;;;;;;5.22;0.80;;;;;;;16.97;99.21;100768.84;8391509;27;20855;-49
2022/10/02 09:38:43;;;;;;;3.65;0.95;;;;;;;16.90;98.32;100766.97;8370207;28;20039;-50
2022/10/02 09:43:03;;;;;;;;;;;;;;;16.95;98.08;100770.00;8341534;28;20033;-50
2022/10/02 09:51:57;;;;;;;4.38;0.90;;;;;;;16.83;99.78;100755.88;8385325;27;20466;-52
2022/10/02 10:01:01;;;;;;;3.85;0.77;;;;;;;17.05;99.35;100770.69;8315772;28;20393;-50
2022/10/02 10:05:42;;;;;;;7.80;1.20;;;;;;;17.06;99.94;100772.38;8310487;28;20103;-51
2022/10/02 10:09:58;;;;;;;3.17;1.25;;;;;;;17.07;99.80;100774.06;8306262;28;20072;-50
2022/10/02 10:14:29;;;;;;;4.28;0.93;;;;;;;16.91;100.00;100769.53;8312738;28;20037;-51
2022/10/02 10:19:02;;;;;;;7.57;1.20;;;;;;;16.90;99.90;100777.91;8309339;28;20045;-51
2022/10/02 10:23:42;;;;;;;11.18;1.70;;;;;;;16.95;100.00;100767.28;8309218;28;20127;-51
2022/10/02 10:28:09;;;;;;;5.88;1.25;;;;;;;17.27;98.65;100778.13;8305941;28;20064;-52
2022/10/02 10:32:46;;;;;;;7.47;1.45;;;;;;;17.29;98.68;100789.69;8310590;28;20534;-51
2022/10/02 10:38:33;;;;;;;5.72;1.75;;;;;;;17.05;98.32;100798.00;8308996;28;20062;-51
2022/10/02 10:42:14;;;;;;;7.93;1.30;;;;;;;16.95;99.54;100802.78;8311807;28;20422;-50
2022/10/02 10:46:50;;;;;;;7.97;1.50;;;;;;;16.91;100.00;100824.16;8310607;28;20041;-54
2022/10/02 10:51:20;;;;;;;6.18;1.70;;;;;;;16.81;100.00;100817.19;8311706;28;20053;-51
2022/10/02 10:55:53;;;;;;;4.65;1.40;;;;;;;16.93;100.00;100810.34;8310598;28;20045;-54
2022/10/02 11:00:18;;;;;;;3.30;1.10;;;;;;;17.19;99.18;100814.53;8300028;28;20099;-52
2022/10/02 11:09:16;;;;;;;5.55;1.33;;;;;;;17.41;96.53;100848.41;8298368;27;20401;-50
2022/10/02 11:13:56;;;;;;;4.00;1.42;;;;;;;17.62;95.64;100851.44;8273250;28;20042;-51
2022/10/02 11:18:11;;;;;;;5.38;1.08;;;;;;;17.82;94.92;100850.00;8293163;28;20066;-52
2022/10/02 11:22:41;;;;;;;5.70;1.25;;;;;;;17.97;94.96;100844.59;8285327;28;20062;-54
2022/10/02 11:27:06;;;;;;;5.70;1.13;;;;;;;17.79;93.07;100857.69;8293227;28;20034;-51
2022/10/02 11:31:40;;;;;;;6.32;1.60;;;;;;;17.45;96.48;100855.31;8299120;28;20148;-54
2022/10/02 11:36:18;;;;;;;6.53;1.58;;;;;;;17.45;98.21;100861.59;8311877;28;20068;-50
2022/10/02 11:40:58;;;;;;;4.32;1.38;;;;;;;17.67;95.42;100849.03;8286984;28;20045;-52
2022/10/02 11:49:50;;;;;;;4.15;1.35;;;;;;;17.82;94.19;100847.25;8386821;27;20386;-52
2022/10/02 11:54:11;;;;;;;10.00;1.83;;;;;;;17.82;93.75;100841.78;8361030;28;20060;-54
2022/10/02 11:58:40;;;;;;;8.50;1.77;;;;;;;18.07;92.99;100845.22;8344790;28;20041;-53
2022/10/02 12:02:51;;;;;;;9.27;2.13;;;;;;;19.22;87.30;100860.34;8362551;27;20048;-53
2022/10/02 12:07:22;;;;;;;5.15;1.63;;;;;;;20.10;83.18;100845.50;8353332;28;20049;-51
2022/10/02 12:11:47;;;;;;;7.78;1.65;;;;;;;19.45;86.34;100855.66;8351617;28;20092;-50
2022/10/02 12:16:15;;;;;;;4.93;2.00;;;;;;;20.10;82.58;100855.66;8359436;28;20135;-51
2022/10/02 12:34:32;;;;;;;9.98;2.13;;;;;;;18.33;89.81;100852.03;8288124;28;20505;-50
2022/10/02 12:39:12;;;;;;;7.50;1.80;;;;;;;18.29;90.05;100855.31;8279249;28;20042;-50
2022/10/02 12:43:49;;;;;;;5.15;1.55;;;;;;;18.27;87.93;100852.78;8284223;28;20062;-53
2022/10/02 12:48:17;;;;;;;6.40;2.20;;;;;;;18.03;90.09;100860.31;8293811;28;20042;-52
2022/10/02 12:52:46;;;;;;;5.22;1.73;;;;;;;17.83;90.30;100854.44;8269671;28;20038;-52
2022/10/02 12:57:57;;;;;;;6.35;1.85;;;;;;;17.82;90.75;100852.72;8280190;28;20035;-51
2022/10/02 13:02:09;;;;;;;6.97;2.00;;;;;;;17.82;91.42;100846.41;8287584;28;20044;-53
2022/10/02 13:06:42;;;;;;;6.97;2.43;;;;;;;17.80;91.26;100838.38;8315515;28;20041;-53
2022/10/02 13:10:56;;;;;;;7.25;2.17;;;;;;;17.79;91.36;100839.41;8309178;28;20037;-52
2022/10/02 13:15:05;;;;;;;;;;;;;;;17.82;89.98;100841.78;8307007;28;20038;-54
2022/10/02 13:19:32;;;;;;;10.38;2.28;;;;;;;17.78;90.15;100851.38;8311155;28;19932;-54
2022/10/02 13:24:00;;;;;;;12.57;2.75;;;;;;;17.89;89.87;100850.97;8308669;28;20068;-50
2022/10/02 13:28:38;;;;;;;7.90;3.00;;;;;;;18.04;90.79;100856.53;8310908;28;20034;-53
2022/10/02 13:33:19;;;;;;;8.45;2.63;;;;;;;18.04;91.24;100865.59;8291764;28;20125;-52
2022/10/02 13:37:54;;;;;;;9.25;2.00;;;;;;;17.94;89.98;100862.25;8267467;28;20803;-51
2022/10/02 13:42:22;;;;;;;8.60;2.00;;;;;;;17.86;90.60;100875.97;8297277;28;20596;-50
2022/10/02 13:46:53;;;;;;;5.15;2.13;;;;;;;17.94;91.83;100881.41;8287035;28;20049;-53
2022/10/02 13:51:26;;;;;;;5.05;1.98;;;;;;;17.99;90.49;100875.38;8288625;28;20073;-51
2022/10/02 13:55:32;;;;;;;12.07;2.80;;;;;;;17.96;88.74;100882.06;8291482;28;20125;-50
2022/10/02 14:00:13;;;;;;;10.00;2.65;;;;;;;18.01;89.23;100885.13;8271023;28;20113;-54
2022/10/02 14:04:32;;;;;;;6.30;2.58;;;;;;;17.93;90.04;100892.53;8253736;28;20046;-53
2022/10/02 14:09:12;;;;;;;9.93;2.72;;;;;;;17.87;90.29;100885.84;8255762;28;20055;-50
2022/10/02 14:13:32;;;;;;;7.40;2.83;;;;;;;17.88;91.47;100904.00;8256086;28;20092;-51
2022/10/02 14:17:50;;;;;;;7.53;2.20;;;;;;;17.91;89.86;100903.66;8285933;28;20054;-54
2022/10/02 14:22:32;;;;;;;9.20;2.35;;;;;;;17.98;89.87;100911.97;8277895;28;20422;-51
2022/10/02 14:26:59;;;;;;;7.22;2.13;;;;;;;17.92;90.02;100908.06;8285895;28;20141;-51
2022/10/02 14:31:15;;;;;;;11.25;2.67;;;;;;;17.89;87.96;100908.44;8302198;28;20049;-51
2022/10/02 14:35:50;;;;;;;5.20;2.20;;;;;;;17.87;88.30;100901.44;8288975;28;20126;-54
2022/10/02 14:39:54;;;;;;;12.20;2.63;;;;;;;17.90;89.11;100903.81;8282748;28;20097;-51
2022/10/02 14:44:27;;;;;;;8.10;2.92;;;;;;;17.84;89.30;100905.38;8274033;28;20045;-51
2022/10/02 14:49:07;;;;;;;11.98;2.95;;;;;;;17.89;91.02;100897.47;8288295;28;20037;-51
2022/10/02 14:53:29;;;;;;;8.35;2.67;;;;;;;17.88;90.69;100911.34;8281137;28;20034;-51
2022/10/02 14:57:59;;;;;;;10.25;2.67;;;;;;;17.87;89.97;100910.47;8278211;28;20053;-50
2022/10/02 15:02:32;;;;;;;11.95;3.13;;;;;;;17.96;90.86;100911.31;8288375;28;20041;-53
2022/10/02 15:06:56;;;;;;;9.35;3.22;;;;;;;17.86;89.69;100917.00;8287935;28;20546;-51
2022/10/02 15:10:59;;;;;;;11.43;3.42;;;;;;;17.68;90.43;100915.53;8287390;28;20034;-53
2022/10/02 15:15:21;;;;;;;9.38;3.33;;;;;;;17.59;90.69;100914.69;8284146;28;20065;-54
2022/10/02 15:19:30;;;;;;;10.43;3.42;;;;;;;17.57;91.14;100912.13;8283926;28;20458;-51
2022/10/02 15:27:58;;;;;;;23.40;10.38;;;;;;;17.50;92.81;100926.69;8457834;27;20334;-53
2022/10/02 15:32:39;;;;;;;11.50;3.08;;;;;;;17.42;93.43;100922.06;8430530;27;20043;-54
2022/10/02 15:37:03;;;;;;;8.65;2.35;;;;;;;17.49;93.34;100939.53;8389069;28;20525;-55
2022/10/02 15:46:03;;;;;;;12.10;2.90;;;;;;;17.61;93.40;100937.25;8350593;27;21030;-55
2022/10/02 15:50:29;;;;;;;8.80;3.33;;;;;;;17.61;92.42;100942.72;8358437;28;20522;-55
2022/10/02 15:54:52;;;;;;;9.43;3.10;;;;;;;17.49;91.46;100933.19;8372355;28;20043;-55
2022/10/02 15:59:33;;;;;;;9.35;3.55;;;;;;;17.41;92.70;100938.63;8337254;28;20038;-52
2022/10/02 16:03:52;;;;;;;16.85;4.00;;;;;;;17.24;93.55;100939.69;8362767;28;20034;-55
2022/10/02 16:17:05;;;;;;;9.60;3.92;;;;;;;16.71;97.18;100958.50;8401809;27;20494;-49
2022/10/02 16:25:57;;;;;;;7.18;3.95;;;;;;;16.52;99.20;100953.34;8256219;28;20408;-51
2022/10/02 16:34:38;;;;;;;9.80;3.78;;;;;;;16.28;100.00;100973.22;8380442;27;20427;-48
2022/10/02 16:38:48;;;;;;;;;;;;;;;16.19;100.00;100987.00;8404439;28;20043;-51
2022/10/02 16:42:54;;;;;;;13.32;4.05;;;;;;;16.01;100.00;100987.09;8380584;28;19966;-49
2022/10/02 16:47:27;;;;;;;11.05;3.38;;;;;;;15.93;100.00;100986.22;8380599;28;20449;-52
2022/10/02 16:51:44;;;;;;;12.02;4.28;;;;;;;15.80;100.00;101005.75;8368620;28;20098;-54
2022/10/02 16:55:56;;;;;;;11.50;3.67;;;;;;;15.72;100.00;101019.34;8380919;28;20051;-54
2022/10/02 17:00:26;;;;;;;14.88;4.50;;;;;;;15.69;100.00;101025.09;8376716;28;20039;-55
2022/10/02 17:04:39;;;;;;;12.93;3.85;;;;;;;15.57;100.00;101038.16;8388072;28;20070;-52
2022/10/02 17:08:49;;;;;;;12.45;5.15;;;;;;;15.51;100.00;101041.53;8390022;28;20094;-54
2022/10/02 17:13:20;;;;;;;13.73;4.70;;;;;;;15.49;100.00;101050.84;8377805;28;20033;-51
2022/10/02 17:17:43;;;;;;;12.35;7.28;;;;;;;15.47;100.00;101053.72;8369048;28;20081;-53
2022/10/02 17:21:52;;;;;;;17.17;5.07;;;;;;;15.40;100.00;101066.28;8373635;28;20041;-54
2022/10/02 17:26:04;;;;;;;22.92;5.53;;;;;;;15.29;100.00;101085.59;8373150;28;20083;-54
2022/10/02 17:30:22;;;;;;;17.08;5.35;;;;;;;15.21;100.00;101085.50;8370961;28;20039;-51
2022/10/02 17:34:29;;;;;;;13.27;6.32;;;;;;;15.16;100.00;101093.28;8371629;28;20593;-54
2022/10/02 17:38:57;;;;;;;20.48;7.20;;;;;;;15.17;100.00;101100.47;8373537;28;20514;-50
2022/10/02 17:43:29;;;;;;;13.50;5.28;;;;;;;15.23;100.00;101109.88;8363545;28;20445;-55
2022/10/02 17:47:55;;;;;;;13.18;7.05;;;;;;;15.28;100.00;101130.19;8339116;28;20438;-52
2022/10/02 17:57:35;;;;;;;31.80;13.95;;;;;;;15.16;100.00;101131.41;8353176;28;20055;-55
2022/10/02 18:07:03;;;;;;;12.00;5.90;;;;;;;14.95;100.00;101151.78;8391102;27;20397;-55
2022/10/02 18:11:09;;;;;;;15.40;6.88;;;;;;;14.96;100.00;101157.09;8375260;28;20044;-56
2022/10/02 18:20:11;;;;;;;14.10;7.40;;;;;;;15.17;100.00;101176.72;8316926;27;20431;-54
2022/10/02 18:24:52;;;;;;;13.88;6.72;;;;;;;15.33;100.00;101182.34;8324704;28;20091;-52
2022/10/02 18:29:09;;;;;;;13.35;6.22;;;;;;;15.31;100.00;101184.34;8310706;28;20525;-55
2022/10/02 18:33:44;;;;;;;22.63;6.85;;;;;;;15.26;100.00;101192.16;8313138;28;20058;-56
2022/10/02 18:38:12;;;;;;;14.77;6.95;;;;;;;15.24;100.00;101198.75;8324566;28;20407;-55
2022/10/02 18:46:48;;;;;;;17.63;6.50;;;;;;;15.38;100.00;101220.94;8357332;27;20396;-55
2022/10/02 18:51:22;;;;;;;17.50;6.53;;;;;;;15.37;100.00;101218.38;8322158;28;20060;-56
2022/10/02 18:55:53;;;;;;;18.70;6.57;;;;;;;15.36;100.00;101224.75;8349193;28;20482;-55
2022/10/02 19:00:21;;;;;;;12.55;7.45;;;;;;;15.32;100.00;101229.69;8345555;28;20057;-55
2022/10/02 19:04:42;;;;;;;19.25;7.95;;;;;;;15.32;100.00;101232.41;8348844;28;20072;-55
2022/10/02 19:09:09;;;;;;;17.10;7.47;;;;;;;15.28;100.00;101241.88;8351479;28;20184;-56
2022/10/02 19:13:27;;;;;;;15.93;7.32;;;;;;;15.22;100.00;101234.31;8350917;28;20052;-55
2022/10/02 19:17:29;;;;;;;15.63;7.90;;;;;;;15.08;100.00;101239.44;8349316;28;20041;-55
2022/10/02 19:21:34;;;;;;;17.42;9.38;;;;;;;14.86;100.00;101248.88;8348874;28;20451;-56
2022/10/02 19:25:35;;;;;;;22.33;8.80;;;;;;;14.63;100.00;101252.97;8351737;28;20040;-55
2022/10/02 19:29:45;;;;;;;21.17;9.13;;;;;;;14.59;100.00;101261.56;8365613;28;20584;-55
2022/10/02 19:33:50;;;;;;;24.25;10.13;;;;;;;14.52;100.00;101271.34;8382212;28;20128;-56
2022/10/02 19:37:57;;;;;;;25.27;10.02;;;;;;;14.47;100.00;101273.63;8381687;28;20045;-55
2022/10/02 19:42:02;;;;;;;21.60;9.73;;;;;;;14.49;100.00;101280.63;8354647;28;20511;-54
2022/10/02 19:46:05;;;;;;;17.73;10.15;;;;;;;14.50;100.00;101287.81;8351055;28;20036;-56
2022/10/02 19:50:17;;;;;;;15.20;9.52;;;;;;;14.41;100.00;101285.97;8315889;28;20076;-55
2022/10/02 19:54:25;;;;;;;20.35;9.93;;;;;;;14.36;100.00;101296.44;8315765;28;20038;-52
2022/10/02 19:58:38;;;;;;;20.55;9.70;;;;;;;14.23;100.00;101298.59;8299248;28;20041;-54
2022/10/02 20:02:44;;;;;;;25.95;11.18;;;;;;;14.16;100.00;101296.56;8325018;28;20061;-54
2022/10/02 20:06:51;;;;;;;21.10;9.18;;;;;;;13.93;100.00;101309.59;8326854;28;20073;-56
2022/10/02 20:11:22;;;;;;;33.10;14.82;;;;;;;13.79;100.00;101315.47;8315231;28;20676;-55
2022/10/02 20:19:58;;;;;;;21.85;10.05;;;;;;;13.72;100.00;101330.59;8289357;28;20121;-56
2022/10/02 20:24:00;;;;;;;22.55;9.10;;;;;;;13.46;100.00;101329.41;8293672;28;20046;-54
2022/10/02 20:28:14;;;;;;;24.88;10.70;;;;;;;13.39;100.00;101339.13;8274598;28;20038;-55
2022/10/02 20:32:22;;;;;;;27.02;9.95;;;;;;;13.40;100.00;101335.41;8298829;28;20111;-54
2022/10/02 20:36:29;;;;;;;22.55;9.80;;;;;;;13.32;100.00;101355.09;8294492;28;20920;-56
2022/10/02 20:40:35;;;;;;;24.00;9.00;;;;;;;13.20;100.00;101361.63;8291947;28;20053;-54
2022/10/02 20:44:36;;;;;;;27.70;8.60;;;;;;;12.97;100.00;101364.66;8324989;28;20037;-51
2022/10/02 20:49:17;;;;;;;20.65;8.55;;;;;;;12.92;100.00;101375.91;8321905;28;20402;-55
2022/10/02 20:53:57;;;;;;;18.30;7.50;;;;;;;12.89;100.00;101394.28;8317492;28;20076;-55
2022/10/02 20:58:28;;;;;;;27.48;7.70;;;;;;;12.95;100.00;101389.22;8324757;28;20075;-55
2022/10/02 21:03:09;;;;;;;16.45;6.15;;;;;;;13.15;100.00;101392.91;8335195;28;20029;-55
2022/10/02 21:07:24;;;;;;;18.35;6.30;;;;;;;13.17;100.00;101401.75;8317671;28;20460;-55
2022/10/02 21:16:04;;;;;;;23.67;5.15;;;;;;;13.21;100.00;101419.53;8284633;28;20896;-53
2022/10/02 21:20:37;;;;;;;18.73;4.70;;;;;;;12.72;100.00;101420.19;8279785;28;20050;-55
2022/10/02 21:33:39;;;;;;;18.33;4.20;;;;;;;12.98;100.00;101426.06;8384574;27;20376;-53
2022/10/02 21:38:19;;;;;;;17.80;5.25;;;;;;;12.75;100.00;101429.94;8370267;28;20102;-53
2022/10/02 21:56:09;;;;;;;29.02;6.05;;;;;;;12.50;100.00;101458.28;8285738;28;20455;-55
2022/10/02 22:00:21;;;;;;;20.83;5.68;;;;;;;12.33;100.00;101467.00;8274814;28;20096;-52
2022/10/02 22:05:01;;;;;;;19.90;6.10;;;;;;;12.20;100.00;101470.88;8313404;28;20415;-55
2022/10/02 22:09:26;;;;;;;25.55;5.57;;;;;;;12.51;100.00;101478.16;8315202;28;20449;-54
2022/10/02 22:13:36;;;;;;;22.10;5.68;;;;;;;12.67;100.00;101482.16;8312031;28;20042;-54
2022/10/02 22:18:00;;;;;;;20.02;5.57;;;;;;;12.38;100.00;101485.59;8314725;28;20042;-51
2022/10/02 22:26:43;;;;;;;26.23;5.40;;;;;;;12.62;100.00;101483.50;8397379;27;20382;-53